Dai25myoujinmaru — JL6201 — position and weather

sailwx.info

Track history (hours):
 
Tides and Currents Weather Stations Pressure Air Temp Water Temp Dewpoint Dewpoint Depression Visibility Wind Speed Wind Dir Waves Ship Positions

Dai25myoujinmaru

Last reported at 2014-Dec-15 22:33 UTC. Time now 2014-Dec-20 17:53 UTC.
Position N 34°10' E 134°58'.

Length 88 m; draft 5.9 m.

Type: Tanker. MMSI: 431500272.

Date/timePositionNaut miles runAvg speedWind from/ knotsBaromVisibWave heightAir tempDewpointWater temp
2014-Dec-15 22:33N 34°10' E 134°58'1812.2
2014-Dec-15 21:07N 34°27' E 135°01'712.0
2014-Dec-15 20:33N 34°34' E 135°04'9 9.0
2014-Dec-15 19:32N 34°34' E 134°53'233 6.4
2014-Dec-14 07:12N 33°52' E 130°16'812.5
2014-Dec-14 06:33N 33°47' E 130°08'1212.3
2014-Dec-14 05:33N 33°41' E 129°55'  
2014-Dec-11 05:31N 33°53' E 130°22'1212.6
2014-Dec-11 04:33N 33°43' E 130°16'8 8.3
2014-Dec-11 03:33N 33°36' E 130°23'0 0.0
2014-Dec-11 02:33N 33°36' E 130°23'0 0.0
2014-Dec-11 01:32N 33°36' E 130°23'0 0.0
2014-Dec-11 00:32N 33°36' E 130°23'0 0.0
2014-Dec-10 23:33N 33°36' E 130°23'2 1.6
2014-Dec-10 22:33N 33°37' E 130°21'0 0.5
2014-Dec-10 21:33N 33°37' E 130°21'0 0.3
2014-Dec-10 20:33N 33°37' E 130°21'9 8.9
2014-Dec-10 19:32N 33°46' E 130°18'  
2014-Dec-06 07:22N 35°08' E 139°43'911.3
2014-Dec-06 06:33N 35°18' E 139°44'1010.4
2014-Dec-06 05:33N 35°27' E 139°48'5 5.2
2014-Dec-06 04:31N 35°29' E 139°54'0 0.0
2014-Dec-06 02:27N 35°29' E 139°54'0 0.0
2014-Dec-06 01:11N 35°29' E 139°54'0 0.0
2014-Dec-06 00:32N 35°29' E 139°54'0 0.0
2014-Dec-05 23:33N 35°29' E 139°54'  
Track history (hours):
 
Tides and Currents Weather Stations Pressure Air Temp Water Temp Dewpoint Dewpoint Depression Visibility Wind Speed Wind Dir Waves Ship Positions

Dai25myoujinmaru

Last reported at 2014-Dec-15 22:33 UTC. Time now 2014-Dec-20 17:53 UTC.
Position N 34°10' E 134°58'.

Length 88 m; draft 5.9 m.

Type: Tanker. MMSI: 431500272.

Date/timePositionNaut miles runAvg speedWind from/ knotsBaromVisibWave heightAir tempDewpointWater temp
2014-Dec-15 22:33N 34°10' E 134°58'1812.2
2014-Dec-15 21:07N 34°27' E 135°01'712.0
2014-Dec-15 20:33N 34°34' E 135°04'9 9.0
2014-Dec-15 19:32N 34°34' E 134°53'233 6.4
2014-Dec-14 07:12N 33°52' E 130°16'812.5
2014-Dec-14 06:33N 33°47' E 130°08'1212.3
2014-Dec-14 05:33N 33°41' E 129°55'  
2014-Dec-11 05:31N 33°53' E 130°22'1212.6
2014-Dec-11 04:33N 33°43' E 130°16'8 8.3
2014-Dec-11 03:33N 33°36' E 130°23'0 0.0
2014-Dec-11 02:33N 33°36' E 130°23'0 0.0
2014-Dec-11 01:32N 33°36' E 130°23'0 0.0
2014-Dec-11 00:32N 33°36' E 130°23'0 0.0
2014-Dec-10 23:33N 33°36' E 130°23'2 1.6
2014-Dec-10 22:33N 33°37' E 130°21'0 0.5
2014-Dec-10 21:33N 33°37' E 130°21'0 0.3
2014-Dec-10 20:33N 33°37' E 130°21'9 8.9
2014-Dec-10 19:32N 33°46' E 130°18'  
2014-Dec-06 07:22N 35°08' E 139°43'911.3
2014-Dec-06 06:33N 35°18' E 139°44'1010.4
2014-Dec-06 05:33N 35°27' E 139°48'5 5.2
2014-Dec-06 04:31N 35°29' E 139°54'0 0.0
2014-Dec-06 02:27N 35°29' E 139°54'0 0.0
2014-Dec-06 01:11N 35°29' E 139°54'0 0.0
2014-Dec-06 00:32N 35°29' E 139°54'0 0.0
2014-Dec-05 23:33N 35°29' E 139°54'  

Dump ship's entire track history